This is the latest recevied weather packets stored in our database for station/object DL1NUX-15. If no packets are shown the sender has not sent any weather packets the latest 10 day(s).
| Time | Temp. | Humidity | Pressure | Rain* | Wind** | Luminosity | Snow |
|---|---|---|---|---|---|---|---|
| 1777182934 | 7.22° C | 73% | 1024.5 hPa | 0 mm | - | 93 W/m² | - |
| 1777182334 | 7.22° C | 75% | 1024.4 hPa | 0 mm | - | 95 W/m² | - |
| 1777181735 | 6.67° C | 76% | 1024.3 hPa | 0 mm | - | 94 W/m² | - |
| 1777179936 | 6.11° C | 78% | 1023.9 hPa | 0 mm | - | 37 W/m² | - |
| 1777177522 | 4.44° C | 85% | 1023.2 hPa | 0 mm | - | 10 W/m² | - |
| 1777176922 | 4.44° C | 84% | 1023 hPa | 0 mm | - | 5 W/m² | - |
| 1777176323 | 4.44° C | 83% | 1022.7 hPa | 0 mm | - | 2 W/m² | - |
| 1777175723 | 4.44° C | 83% | 1022.5 hPa | 0 mm | - | 0 W/m² | - |
| 1777173925 | 4.44° C | 80% | 1022.3 hPa | 0 mm | - | 0 W/m² | - |
| 1777172126 | 5° C | 75% | 1021.9 hPa | 0 mm | - | 0 W/m² | - |
| 1777171526 | 5° C | 75% | 1021.8 hPa | 0 mm | - | 0 W/m² | - |
| 1777169128 | 6.11° C | 69% | 1021.4 hPa | 0 mm | - | 0 W/m² | - |
| 1777167329 | 5.56° C | 70% | 1020.9 hPa | 0 mm | - | 0 W/m² | - |
| 1777164331 | 6.67° C | 64% | 1020.4 hPa | 0 mm | - | 0 W/m² | - |
| 1777163731 | 7.22° C | 63% | 1020.4 hPa | 0 mm | - | 0 W/m² | - |
| 1777163132 | 8.33° C | 59% | 1020.6 hPa | 0 mm | - | 0 W/m² | - |
| 1777162533 | 7.78° C | 60% | 1020.5 hPa | 0 mm | - | 0 W/m² | - |
| 1777161333 | 7.78° C | 60% | 1020.2 hPa | 0 mm | - | 0 W/m² | - |
| 1777160134 | 9.44° C | 52% | 1020 hPa | 0 mm | - | 0 W/m² | - |
| 1777158335 | 10° C | 50% | 1019.7 hPa | 0 mm | - | 0 W/m² | - |
| 1777157735 | 10.56° C | 49% | 1019.7 hPa | 0 mm | - | 0 W/m² | - |
| 1777150541 | 11.11° C | 49% | 1018.5 hPa | 0 mm | - | 0 W/m² | - |
| 1777149341 | 12.22° C | 46% | 1018.3 hPa | 0 mm | - | 0 W/m² | - |
| 1777148742 | 12.78° C | 47% | 1018.3 hPa | 0 mm | - | 0 W/m² | - |
| 1777148142 | 12.22° C | 47% | 1018.4 hPa | 0 mm | - | 0 W/m² | - |
* Rain latest hour (hover to see other rain measurements)
** Current wind speed in m/s (hover to see current wind gust speed)